createdAt,value
2016-02-21T00:00:57.600Z,0
2016-02-21T00:01:57.557Z,0
2016-02-21T00:02:57.559Z,0
2016-02-21T00:03:57.531Z,0
2016-02-21T00:04:57.518Z,0
2016-02-21T00:05:57.458Z,0
2016-02-21T00:06:57.461Z,0
2016-02-21T00:07:57.463Z,0
2016-02-21T00:08:57.404Z,0
2016-02-21T00:09:57.390Z,0
2016-02-21T00:10:57.346Z,0
2016-02-21T00:11:57.334Z,0
2016-02-21T00:12:57.337Z,0
2016-02-21T00:13:57.276Z,0
2016-02-21T00:14:57.279Z,0
2016-02-21T00:15:57.234Z,0
2016-02-21T00:16:57.206Z,0
2016-02-21T00:17:57.225Z,0
2016-02-21T00:18:57.165Z,0
2016-02-21T00:19:57.137Z,0
2016-02-21T00:20:57.154Z,0
2016-02-21T00:21:57.111Z,0
2016-02-21T00:22:57.081Z,0
2016-02-21T00:23:57.053Z,0
2016-02-21T00:24:57.025Z,0
2016-02-21T00:25:57.011Z,0
2016-02-21T00:26:56.984Z,0
2016-02-21T00:27:56.955Z,0
2016-02-21T00:28:56.942Z,0
2016-02-21T00:29:56.928Z,0
2016-02-21T00:30:56.885Z,0
2016-02-21T00:31:56.856Z,0
2016-02-21T00:32:56.844Z,0
2016-02-21T00:33:56.814Z,0
2016-02-21T00:34:56.802Z,0
2016-02-21T00:35:56.774Z,0
2016-02-21T00:36:56.760Z,0
2016-02-21T00:37:56.746Z,0
2016-02-21T00:38:56.718Z,0
2016-02-21T00:39:56.691Z,0
2016-02-21T00:40:56.662Z,0
2016-02-21T00:41:56.632Z,0
2016-02-21T00:42:56.604Z,0
2016-02-21T00:43:56.590Z,0
2016-02-21T00:44:56.594Z,0
2016-02-21T00:45:56.566Z,0
2016-02-21T00:46:56.537Z,0
2016-02-21T00:47:56.509Z,0
2016-02-21T00:48:56.479Z,0
2016-02-21T00:49:56.467Z,0
2016-02-21T00:50:56.469Z,0
2016-02-21T00:51:56.409Z,0
2016-02-21T00:52:56.413Z,0
2016-02-21T00:53:56.368Z,0
2016-02-21T00:54:56.340Z,0
2016-02-21T00:55:56.342Z,0
2016-02-21T00:56:56.297Z,0
2016-02-21T00:57:56.286Z,0
2016-02-21T00:58:56.273Z,0
2016-02-21T00:59:56.228Z,0
2016-02-21T01:00:56.216Z,0
2016-02-21T01:01:56.187Z,0
2016-02-21T01:02:56.158Z,0
2016-02-21T01:03:56.144Z,0
2016-02-21T01:04:56.116Z,0
2016-02-21T01:05:56.105Z,0
2016-02-21T01:06:56.107Z,0
2016-02-21T01:07:55.891Z,0
2016-02-21T01:08:56.049Z,0
2016-02-21T01:09:56.005Z,0
2016-02-21T01:10:55.977Z,0
2016-02-21T01:11:55.995Z,0
2016-02-21T01:12:55.950Z,0
2016-02-21T01:13:55.922Z,0
2016-02-21T01:14:55.893Z,0
2016-02-21T01:15:55.865Z,0
2016-02-21T01:16:55.836Z,0
2016-02-21T01:17:55.823Z,0
2016-02-21T01:18:55.796Z,0
2016-02-21T01:19:55.782Z,0
2016-02-21T01:20:55.754Z,0
2016-02-21T01:21:55.725Z,0
2016-02-21T01:22:55.712Z,0
2016-02-21T01:23:55.683Z,0
2016-02-21T01:24:55.671Z,0
2016-02-21T01:25:55.642Z,0
2016-02-21T01:26:55.614Z,0
2016-02-21T01:27:55.617Z,0
2016-02-21T01:28:55.572Z,0
2016-02-21T01:29:55.558Z,0
2016-02-21T01:30:55.530Z,0
2016-02-21T01:31:55.502Z,0
2016-02-21T01:32:55.505Z,0
2016-02-21T01:33:55.444Z,0
2016-02-21T01:34:55.291Z,0
2016-02-21T01:35:55.403Z,0
2016-02-21T01:36:55.390Z,0
2016-02-21T01:37:55.361Z,0
2016-02-21T01:38:55.348Z,0
2016-02-21T01:39:55.321Z,0
2016-02-21T01:40:55.291Z,0
2016-02-21T01:41:55.279Z,0
2016-02-21T01:42:55.249Z,0
2016-02-21T01:43:55.237Z,0
2016-02-21T01:44:55.240Z,0
2016-02-21T01:45:55.180Z,0
2016-02-21T01:46:55.168Z,0
2016-02-21T01:47:55.138Z,0
2016-02-21T01:48:55.001Z,0
2016-02-21T01:49:55.097Z,0
2016-02-21T01:50:55.084Z,0
2016-02-21T01:51:55.039Z,0
2016-02-21T01:52:55.027Z,0
2016-02-21T01:53:55.030Z,0
2016-02-21T01:54:54.986Z,0
2016-02-21T01:55:54.973Z,0
2016-02-21T01:56:54.928Z,0
2016-02-21T01:57:54.915Z,0
2016-02-21T01:58:54.902Z,0
2016-02-21T01:59:54.875Z,0
2016-02-21T02:00:54.845Z,0
2016-02-21T02:01:54.833Z,0
2016-02-21T02:02:54.803Z,0
2016-02-21T02:03:54.775Z,0
2016-02-21T02:04:54.746Z,0
2016-02-21T02:05:54.750Z,0
2016-02-21T02:06:54.706Z,0
2016-02-21T02:07:54.692Z,0
2016-02-21T02:08:54.664Z,0
2016-02-21T02:09:54.651Z,0
2016-02-21T02:10:54.622Z,0
2016-02-21T02:11:54.609Z,0
2016-02-21T02:12:54.565Z,0
2016-02-21T02:13:54.552Z,0
2016-02-21T02:14:54.555Z,0
2016-02-21T02:15:54.511Z,0
2016-02-21T02:16:54.482Z,0
2016-02-21T02:17:54.484Z,0
2016-02-21T02:18:54.441Z,0
2016-02-21T02:19:54.428Z,0
2016-02-21T02:20:54.384Z,0
2016-02-21T02:21:54.387Z,0
2016-02-21T02:22:54.342Z,0
2016-02-21T02:23:54.329Z,0
2016-02-21T02:24:54.316Z,0
2016-02-21T02:25:54.287Z,0
2016-02-21T02:26:54.259Z,0
2016-02-21T02:27:54.262Z,0
2016-02-21T02:28:54.203Z,0
2016-02-21T02:29:54.189Z,0
2016-02-21T02:30:54.176Z,0
2016-02-21T02:31:54.148Z,0
2016-02-21T02:32:54.119Z,0
2016-02-21T02:33:54.106Z,0
2016-02-21T02:34:54.078Z,0
2016-02-21T02:35:54.049Z,0
2016-02-21T02:36:54.052Z,0
2016-02-21T02:37:54.008Z,0
2016-02-21T02:38:53.994Z,0
2016-02-21T02:39:53.982Z,0
2016-02-21T02:40:53.938Z,0
2016-02-21T02:41:53.925Z,0
2016-02-21T02:42:53.880Z,0
2016-02-21T02:43:53.868Z,0
2016-02-21T02:44:53.713Z,0
2016-02-21T02:45:53.826Z,0
2016-02-21T02:46:53.812Z,0
2016-02-21T02:47:53.816Z,0
2016-02-21T02:48:53.771Z,0
2016-02-21T02:49:53.743Z,0
2016-02-21T02:50:53.715Z,0
2016-02-21T02:51:53.694Z,0
2016-02-21T02:52:53.657Z,0
2016-02-21T02:53:53.634Z,0
2016-02-21T02:54:53.596Z,0
2016-02-21T02:55:53.559Z,0
2016-02-21T02:56:53.539Z,0
2016-02-21T02:57:53.507Z,0
2016-02-21T02:58:53.491Z,0
2016-02-21T02:59:53.443Z,0
2016-02-21T03:00:53.428Z,0
2016-02-21T03:01:53.396Z,0
2016-02-21T03:02:53.366Z,0
2016-02-21T03:03:53.352Z,0
2016-02-21T03:04:53.337Z,0
2016-02-21T03:05:53.307Z,0
2016-02-21T03:06:53.277Z,0
2016-02-21T03:07:53.264Z,0
2016-02-21T03:08:53.236Z,0
2016-02-21T03:09:53.223Z,0
2016-02-21T03:10:53.194Z,0
2016-02-21T03:11:53.164Z,0
2016-02-21T03:12:53.199Z,0
2016-02-21T03:13:53.124Z,0
2016-02-21T03:14:53.127Z,0
2016-02-21T03:15:53.082Z,0
2016-02-21T03:16:53.053Z,0
2016-02-21T03:17:53.024Z,0
2016-02-21T03:18:53.012Z,0
2016-02-21T03:19:52.982Z,0
2016-02-21T03:20:52.970Z,0
2016-02-21T03:21:52.941Z,0
2016-02-21T03:22:52.913Z,0
2016-02-21T03:23:52.901Z,0
2016-02-21T03:24:52.871Z,0
2016-02-21T03:25:52.843Z,0
2016-02-21T03:26:52.830Z,0
2016-02-21T03:27:52.801Z,0
2016-02-21T03:28:52.789Z,0
2016-02-21T03:29:52.776Z,0
2016-02-21T03:30:52.748Z,0
2016-02-21T03:31:52.718Z,0
2016-02-21T03:32:52.690Z,0
2016-02-21T03:33:52.677Z,0
2016-02-21T03:34:52.648Z,0
2016-02-21T03:35:52.635Z,0
2016-02-21T03:36:52.606Z,0
2016-02-21T03:37:52.578Z,0
2016-02-21T03:38:52.550Z,0
2016-02-21T03:39:52.537Z,0
2016-02-21T03:40:52.508Z,0
2016-02-21T03:41:52.479Z,0
2016-02-21T03:42:52.452Z,0
2016-02-21T03:43:52.423Z,0
2016-02-21T03:44:52.441Z,0
2016-02-21T03:45:52.397Z,0
2016-02-21T03:46:52.369Z,0
2016-02-21T03:47:52.340Z,0
2016-02-21T03:48:52.327Z,0
2016-02-21T03:49:52.313Z,0
2016-02-21T03:50:52.270Z,0
2016-02-21T03:51:52.257Z,0
2016-02-21T03:52:52.229Z,0
2016-02-21T03:53:52.199Z,0
2016-02-21T03:54:52.171Z,0
2016-02-21T03:55:52.158Z,0
2016-02-21T03:56:51.973Z,0
2016-02-21T03:57:52.116Z,0
2016-02-21T03:58:52.088Z,0
2016-02-21T03:59:52.060Z,0
2016-02-21T04:00:52.046Z,0
2016-02-21T04:01:52.002Z,0
2016-02-21T04:02:52.020Z,0
2016-02-21T04:03:51.977Z,0
2016-02-21T04:04:51.979Z,0
2016-02-21T04:05:51.967Z,0
2016-02-21T04:06:51.906Z,0
2016-02-21T04:07:51.894Z,0
2016-02-21T04:08:51.864Z,0
2016-02-21T04:09:51.852Z,0
2016-02-21T04:10:51.807Z,0
2016-02-21T04:11:51.825Z,0
2016-02-21T04:12:51.767Z,0
2016-02-21T04:13:51.738Z,0
2016-02-21T04:14:51.741Z,0
2016-02-21T04:15:51.696Z,0
2016-02-21T04:16:51.652Z,0
2016-02-21T04:17:51.686Z,0
2016-02-21T04:18:51.611Z,0
2016-02-21T04:19:51.583Z,0
2016-02-21T04:20:51.600Z,0
2016-02-21T04:21:51.557Z,0
2016-02-21T04:22:51.527Z,0
2016-02-21T04:23:51.546Z,0
2016-02-21T04:24:51.502Z,0
2016-02-21T04:25:51.457Z,0
2016-02-21T04:26:51.429Z,0
2016-02-21T04:27:51.432Z,0
2016-02-21T04:28:51.435Z,0
2016-02-21T04:29:51.359Z,0
2016-02-21T04:30:51.376Z,0
2016-02-21T04:31:51.301Z,0
2016-02-21T04:32:51.258Z,0
2016-02-21T04:33:51.292Z,0
2016-02-21T04:34:51.248Z,0
2016-02-21T04:35:51.234Z,0
2016-02-21T04:36:51.237Z,0
2016-02-21T04:37:51.192Z,0
2016-02-21T04:38:51.149Z,0
2016-02-21T04:39:51.150Z,0
2016-02-21T04:40:51.076Z,0
2016-02-21T04:41:51.047Z,0
2016-02-21T04:42:51.019Z,0
2016-02-21T04:43:51.005Z,0
2016-02-21T04:44:50.977Z,0
2016-02-21T04:45:50.949Z,0
2016-02-21T04:46:50.936Z,0
2016-02-21T04:47:50.908Z,0
2016-02-21T04:48:50.894Z,0
2016-02-21T04:49:50.850Z,0
2016-02-21T04:50:50.837Z,0
2016-02-21T04:51:50.808Z,0
2016-02-21T04:52:50.795Z,0
2016-02-21T04:53:50.767Z,0
2016-02-21T04:54:50.755Z,0
2016-02-21T04:55:50.726Z,0
2016-02-21T04:56:50.697Z,0
2016-02-21T04:57:50.684Z,0
2016-02-21T04:58:50.640Z,0
2016-02-21T04:59:50.626Z,0
2016-02-21T05:00:50.582Z,0
2016-02-21T05:01:50.570Z,0
2016-02-21T05:02:50.573Z,0
2016-02-21T05:03:50.528Z,0
2016-02-21T05:04:50.515Z,0
2016-02-21T05:05:50.471Z,0
2016-02-21T05:06:50.458Z,0
2016-02-21T05:07:50.414Z,0
2016-02-21T05:08:50.401Z,0
2016-02-21T05:09:50.389Z,0
2016-02-21T05:10:50.359Z,0
2016-02-21T05:11:50.331Z,0
2016-02-21T05:12:50.318Z,0
2016-02-21T05:13:50.289Z,0
2016-02-21T05:14:50.262Z,0
2016-02-21T05:15:50.233Z,0
2016-02-21T05:16:50.205Z,0
2016-02-21T05:17:50.207Z,0
2016-02-21T05:18:50.163Z,0
2016-02-21T05:19:50.149Z,0
2016-02-21T05:20:50.105Z,0
2016-02-21T05:21:50.092Z,0
2016-02-21T05:22:50.080Z,0
2016-02-21T05:23:50.052Z,0
2016-02-21T05:24:50.022Z,0
2016-02-21T05:25:49.993Z,0
2016-02-21T05:26:49.965Z,0
2016-02-21T05:27:49.968Z,0
2016-02-21T05:28:49.924Z,0
2016-02-21T05:29:49.895Z,0
2016-02-21T05:30:49.899Z,0
2016-02-21T05:31:49.838Z,0
2016-02-21T05:32:49.826Z,0
2016-02-21T05:33:49.796Z,0
2016-02-21T05:34:49.767Z,0
2016-02-21T05:35:49.756Z,0
2016-02-21T05:36:49.727Z,0
2016-02-21T05:37:49.745Z,0
2016-02-21T05:38:49.685Z,0
2016-02-21T05:39:49.656Z,0
2016-02-21T05:40:49.628Z,0
2016-02-21T05:41:49.614Z,0
2016-02-21T05:42:49.602Z,0
2016-02-21T05:43:49.574Z,0
2016-02-21T05:44:49.545Z,0
2016-02-21T05:45:49.501Z,0
2016-02-21T05:46:49.488Z,0
2016-02-21T05:47:49.490Z,0
2016-02-21T05:48:49.446Z,0
2016-02-21T05:49:49.433Z,0
2016-02-21T05:50:49.389Z,0
2016-02-21T05:51:49.377Z,0
2016-02-21T05:52:48.614Z,0
2016-02-21T05:53:49.319Z,0
2016-02-21T05:54:49.321Z,0
2016-02-21T05:55:49.277Z,0
2016-02-21T05:56:49.249Z,0
2016-02-21T05:57:49.236Z,0
2016-02-21T05:58:49.208Z,0
2016-02-21T05:59:49.195Z,0
2016-02-21T06:00:49.151Z,0
2016-02-21T06:01:49.137Z,0
2016-02-21T06:02:49.125Z,0
2016-02-21T06:03:49.095Z,0
2016-02-21T06:04:48.927Z,0
2016-02-21T06:05:49.040Z,0
2016-02-21T06:06:49.026Z,0
2016-02-21T06:07:48.998Z,0
2016-02-21T06:08:48.969Z,0
2016-02-21T06:09:48.972Z,4
2016-02-21T06:10:48.927Z,4
2016-02-21T06:11:48.914Z,4
2016-02-21T06:12:48.870Z,0
2016-02-21T06:13:48.873Z,4
2016-02-21T06:14:48.845Z,8
2016-02-21T06:15:48.800Z,8
2016-02-21T06:16:48.787Z,4
2016-02-21T06:17:48.744Z,4
2016-02-21T06:18:48.731Z,8
2016-02-21T06:19:48.702Z,8
2016-02-21T06:20:48.689Z,8
2016-02-21T06:21:48.661Z,12
2016-02-21T06:22:48.632Z,20
2016-02-21T06:23:48.635Z,24
2016-02-21T06:24:48.590Z,32
2016-02-21T06:25:48.577Z,32
2016-02-21T06:26:48.549Z,36
2016-02-21T06:27:48.521Z,40
2016-02-21T06:28:48.507Z,44
2016-02-21T06:29:48.463Z,44
2016-02-21T06:30:48.465Z,44
2016-02-21T06:31:48.452Z,52
2016-02-21T06:32:48.408Z,48
2016-02-21T06:33:48.380Z,52
2016-02-21T06:34:48.352Z,56
2016-02-21T06:35:48.338Z,64
2016-02-21T06:36:48.310Z,76
2016-02-21T06:37:48.297Z,80
2016-02-21T06:38:48.253Z,96
2016-02-21T06:39:48.239Z,112
2016-02-21T06:40:48.211Z,128
2016-02-21T06:41:48.183Z,160
2016-02-21T06:42:48.186Z,184
2016-02-21T06:43:48.142Z,184
2016-02-21T06:44:48.128Z,188
2016-02-21T06:45:48.099Z,244
2016-02-21T06:46:48.071Z,260
2016-02-21T06:47:48.059Z,264
2016-02-21T06:48:48.014Z,296
2016-02-21T06:49:48.033Z,280
2016-02-21T06:50:47.972Z,352
2016-02-21T06:51:47.960Z,336
2016-02-21T06:52:47.930Z,372
2016-02-21T06:53:47.902Z,380
2016-02-21T06:54:47.906Z,400
2016-02-21T06:55:47.861Z,340
2016-02-21T06:56:47.849Z,372
2016-02-21T06:57:47.819Z,416
2016-02-21T06:58:47.791Z,464
2016-02-21T06:59:47.777Z,468
2016-02-21T07:00:47.765Z,556
2016-02-21T07:01:47.752Z,636
2016-02-21T07:02:47.693Z,672
2016-02-21T07:03:47.679Z,688
2016-02-21T07:04:47.666Z,712
2016-02-21T07:05:47.638Z,760
2016-02-21T07:06:47.609Z,716
2016-02-21T07:07:47.596Z,580
2016-02-21T07:08:47.568Z,600
2016-02-21T07:09:47.554Z,640
2016-02-21T07:10:47.526Z,744
2016-02-21T07:11:47.498Z,768
2016-02-21T07:12:47.484Z,804
2016-02-21T07:13:47.456Z,960
2016-02-21T07:14:47.428Z,916
2016-02-21T07:15:47.430Z,1032
2016-02-21T07:16:47.386Z,1128
2016-02-21T07:17:47.358Z,1288
2016-02-21T07:18:47.329Z,1280
2016-02-21T07:19:47.331Z,1056
2016-02-21T07:20:47.131Z,1048
2016-02-21T07:21:47.259Z,1016
2016-02-21T07:22:47.105Z,1080
2016-02-21T07:23:47.077Z,1252
2016-02-21T07:24:47.049Z,1236
2016-02-21T07:25:47.019Z,1252
2016-02-21T07:26:47.148Z,1452
2016-02-21T07:27:47.150Z,1332
2016-02-21T07:28:47.121Z,1488
2016-02-21T07:29:47.093Z,1916
2016-02-21T07:30:47.079Z,1764
2016-02-21T07:31:47.036Z,1804
2016-02-21T07:32:47.024Z,1892
2016-02-21T07:33:46.994Z,1744
2016-02-21T07:34:46.981Z,1712
2016-02-21T07:35:46.953Z,1812
2016-02-21T07:36:46.924Z,1992
2016-02-21T07:37:46.896Z,2064
2016-02-21T07:38:46.883Z,2152
2016-02-21T07:39:46.871Z,2044
2016-02-21T07:40:46.842Z,1924
2016-02-21T07:41:46.813Z,2556
2016-02-21T07:42:46.784Z,2472
2016-02-21T07:43:46.771Z,2216
2016-02-21T07:44:46.758Z,2108
2016-02-21T07:45:46.731Z,2052
2016-02-21T07:46:46.701Z,2084
2016-02-21T07:47:46.673Z,2376
2016-02-21T07:48:46.519Z,2520
2016-02-21T07:49:46.631Z,2316
2016-02-21T07:50:46.633Z,2368
2016-02-21T07:51:46.589Z,2436
2016-02-21T07:52:46.578Z,2284
2016-02-21T07:53:46.564Z,2340
2016-02-21T07:54:46.520Z,2432
2016-02-21T07:55:46.507Z,2520
2016-02-21T07:56:46.478Z,3008
2016-02-21T07:57:46.449Z,3348
2016-02-21T07:58:46.453Z,2504
2016-02-21T07:59:46.408Z,3100
2016-02-21T08:00:46.396Z,3316
2016-02-21T08:01:46.367Z,3632
2016-02-21T08:02:46.354Z,3348
2016-02-21T08:03:46.325Z,3132
2016-02-21T08:04:46.297Z,2924
2016-02-21T08:05:46.299Z,3064
2016-02-21T08:06:46.255Z,3196
2016-02-21T08:07:46.227Z,3420
2016-02-21T08:08:46.199Z,3532
2016-02-21T08:09:46.185Z,3620
2016-02-21T08:10:46.157Z,3628
2016-02-21T08:11:46.144Z,2852
2016-02-21T08:12:46.115Z,3100
2016-02-21T08:13:46.102Z,3000
2016-02-21T08:14:46.074Z,3296
2016-02-21T08:15:46.061Z,2956
2016-02-21T08:16:46.032Z,2832
2016-02-21T08:17:46.004Z,2580
2016-02-21T08:18:45.990Z,2828
2016-02-21T08:19:45.962Z,2920
2016-02-21T08:20:45.949Z,3336
2016-02-21T08:21:45.921Z,3116
2016-02-21T08:22:45.908Z,3616
2016-02-21T08:23:45.879Z,3804
2016-02-21T08:24:45.866Z,3672
2016-02-21T08:25:45.838Z,3808
2016-02-21T08:26:45.808Z,3216
2016-02-21T08:27:45.780Z,3772
2016-02-21T08:28:45.767Z,4620
2016-02-21T08:29:45.739Z,5496
2016-02-21T08:30:45.711Z,4304
2016-02-21T08:31:45.697Z,4548
2016-02-21T08:32:45.685Z,4880
2016-02-21T08:33:45.655Z,4712
2016-02-21T08:34:45.628Z,4172
2016-02-21T08:35:45.614Z,3960
2016-02-21T08:36:45.586Z,3756
2016-02-21T08:37:45.573Z,3400
2016-02-21T08:38:45.544Z,3176
2016-02-21T08:39:45.515Z,3256
2016-02-21T08:40:45.487Z,3304
2016-02-21T08:41:45.474Z,3000
2016-02-21T08:42:45.461Z,3152
2016-02-21T08:43:45.449Z,3692
2016-02-21T08:44:45.420Z,3296
2016-02-21T08:45:45.392Z,3276
2016-02-21T08:46:45.362Z,3268
2016-02-21T08:47:45.334Z,3248
2016-02-21T08:48:45.321Z,3188
2016-02-21T08:49:45.308Z,3104
2016-02-21T08:50:45.281Z,2948
2016-02-21T08:51:45.251Z,3008
2016-02-21T08:52:45.223Z,2828
2016-02-21T08:53:45.225Z,2848
2016-02-21T08:54:45.197Z,3204
2016-02-21T08:55:45.168Z,3260
2016-02-21T08:56:45.155Z,3176
2016-02-21T08:57:45.127Z,3632
2016-02-21T08:58:45.098Z,3508
2016-02-21T08:59:45.070Z,3216
2016-02-21T09:00:45.057Z,3752
2016-02-21T09:01:45.028Z,3660
2016-02-21T09:02:45.016Z,3388
2016-02-21T09:03:45.002Z,3336
2016-02-21T09:04:44.958Z,3560
2016-02-21T09:05:44.961Z,3540
2016-02-21T09:06:44.916Z,3788
2016-02-21T09:07:44.904Z,3764
2016-02-21T09:08:44.875Z,3596
2016-02-21T09:09:44.863Z,3740
2016-02-21T09:10:44.834Z,3544
2016-02-21T09:11:44.805Z,3380
2016-02-21T09:12:44.807Z,3780
2016-02-21T09:13:44.779Z,3200
2016-02-21T09:14:44.751Z,3604
2016-02-21T09:15:44.723Z,4132
2016-02-21T09:16:44.709Z,3844
2016-02-21T09:17:44.681Z,4032
2016-02-21T09:18:44.651Z,4144
2016-02-21T09:19:44.639Z,4144
2016-02-21T09:20:44.611Z,3964
2016-02-21T09:21:44.581Z,4692
2016-02-21T09:22:44.570Z,4856
2016-02-21T09:23:44.556Z,4784
2016-02-21T09:24:44.527Z,4732
2016-02-21T09:25:44.500Z,4736
2016-02-21T09:26:44.502Z,4204
2016-02-21T09:27:44.489Z,4740
2016-02-21T09:28:44.444Z,4560
2016-02-21T09:29:44.416Z,4632
2016-02-21T09:30:44.388Z,4368
2016-02-21T09:31:44.374Z,4520
2016-02-21T09:32:44.346Z,3868
2016-02-21T09:33:44.333Z,3868
2016-02-21T09:34:44.305Z,4204
2016-02-21T09:35:44.276Z,4388
2016-02-21T09:36:44.279Z,4552
2016-02-21T09:37:44.235Z,4020
2016-02-21T09:38:44.221Z,4308
2016-02-21T09:39:44.208Z,4192
2016-02-21T09:40:44.179Z,4508
2016-02-21T09:41:44.152Z,4688
2016-02-21T09:42:44.185Z,4744
2016-02-21T09:43:44.110Z,4544
2016-02-21T09:44:44.096Z,4056
2016-02-21T09:45:44.068Z,4464
2016-02-21T09:46:44.056Z,3660
2016-02-21T09:47:44.011Z,3728
2016-02-21T09:48:43.999Z,3460
2016-02-21T09:49:44.001Z,3588
2016-02-21T09:50:43.956Z,3032
2016-02-21T09:51:43.928Z,3600
2016-02-21T09:52:43.915Z,4152
2016-02-21T09:53:43.886Z,4500
2016-02-21T09:54:43.874Z,4484
2016-02-21T09:55:43.845Z,5196
2016-02-21T09:56:43.833Z,5180
2016-02-21T09:57:43.803Z,5808
2016-02-21T09:58:43.775Z,6428
2016-02-21T09:59:43.747Z,5908
2016-02-21T10:00:43.734Z,6240
2016-02-21T10:01:43.721Z,6876
2016-02-21T10:02:43.708Z,6992
2016-02-21T10:03:43.663Z,7076
2016-02-21T10:04:43.714Z,6352
2016-02-21T10:05:43.638Z,5944
2016-02-21T10:06:43.610Z,6144
2016-02-21T10:07:43.581Z,5168
2016-02-21T10:08:43.583Z,5520
2016-02-21T10:09:43.539Z,4876
2016-02-21T10:10:43.527Z,5344
2016-02-21T10:11:43.514Z,5712
2016-02-21T10:12:43.486Z,6016
2016-02-21T10:13:43.456Z,6528
2016-02-21T10:14:43.428Z,7380
2016-02-21T10:15:43.415Z,7492
2016-02-21T10:16:43.402Z,7604
2016-02-21T10:17:43.358Z,8020
2016-02-21T10:18:43.345Z,9304
2016-02-21T10:19:43.316Z,8292
2016-02-21T10:20:43.304Z,8044
2016-02-21T10:21:43.276Z,7244
2016-02-21T10:22:43.247Z,6348
2016-02-21T10:23:43.249Z,6764
2016-02-21T10:24:43.221Z,5656
2016-02-21T10:25:43.192Z,5648
2016-02-21T10:26:43.179Z,6496
2016-02-21T10:27:43.151Z,7020
2016-02-21T10:28:43.123Z,9424
2016-02-21T10:29:43.109Z,8840
2016-02-21T10:30:43.081Z,9772
2016-02-21T10:31:43.068Z,9392
2016-02-21T10:32:43.055Z,8676
2016-02-21T10:33:43.026Z,7960
2016-02-21T10:34:42.998Z,7744
2016-02-21T10:35:42.967Z,7020
2016-02-21T10:36:42.954Z,8120
2016-02-21T10:37:42.956Z,8108
2016-02-21T10:38:42.912Z,7368
2016-02-21T10:39:42.883Z,6772
2016-02-21T10:40:42.870Z,6304
2016-02-21T10:41:42.842Z,6500
2016-02-21T10:42:42.830Z,7252
2016-02-21T10:43:42.816Z,7196
2016-02-21T10:44:42.788Z,6164
2016-02-21T10:45:42.774Z,5748
2016-02-21T10:46:42.761Z,6616
2016-02-21T10:47:42.733Z,5660
2016-02-21T10:48:42.705Z,6048
2016-02-21T10:49:42.676Z,5844
2016-02-21T10:50:42.647Z,6024
2016-02-21T10:51:42.634Z,5748
2016-02-21T10:52:42.621Z,5848
2016-02-21T10:53:42.593Z,6336
2016-02-21T10:54:42.565Z,6320
2016-02-21T10:55:42.552Z,5284
2016-02-21T10:56:42.523Z,5788
2016-02-21T10:57:42.495Z,6192
2016-02-21T10:58:42.481Z,5640
2016-02-21T10:59:42.453Z,6184
2016-02-21T11:00:42.439Z,7072
2016-02-21T11:01:42.427Z,5588
2016-02-21T11:02:42.398Z,6016
2016-02-21T11:03:42.386Z,5976
2016-02-21T11:04:42.748Z,6960
2016-02-21T11:05:42.328Z,7092
2016-02-21T11:06:42.315Z,8504
2016-02-21T11:07:42.303Z,7188
2016-02-21T11:08:42.274Z,10276
2016-02-21T11:09:42.261Z,9224
2016-02-21T11:10:42.217Z,10360
2016-02-21T11:11:42.203Z,10356
2016-02-21T11:12:42.175Z,10692
2016-02-21T11:13:42.162Z,11384
2016-02-21T11:14:42.352Z,9348
2016-02-21T11:15:42.121Z,11240
2016-02-21T11:16:42.108Z,9624
2016-02-21T11:17:42.080Z,10948
2016-02-21T11:18:42.067Z,11664
2016-02-21T11:19:42.038Z,12500
2016-02-21T11:20:42.010Z,10288
2016-02-21T11:21:41.980Z,10360
2016-02-21T11:22:41.968Z,8572
2016-02-21T11:23:41.955Z,9408
2016-02-21T11:24:41.910Z,9244
2016-02-21T11:25:41.898Z,9576
2016-02-21T11:26:41.885Z,8656
2016-02-21T11:27:41.857Z,8356
2016-02-21T11:28:41.843Z,7976
2016-02-21T11:29:41.815Z,7232
2016-02-21T11:30:41.802Z,7060
2016-02-21T11:31:41.804Z,5892
2016-02-21T11:32:41.760Z,5692
2016-02-21T11:33:41.732Z,6068
2016-02-21T11:34:41.720Z,7368
2016-02-21T11:35:41.690Z,8360
2016-02-21T11:36:41.661Z,6688
2016-02-21T11:37:41.883Z,5408
2016-02-21T11:38:41.636Z,7320
2016-02-21T11:39:41.608Z,6636
2016-02-21T11:40:41.578Z,7384
2016-02-21T11:41:41.566Z,8180
2016-02-21T11:42:41.553Z,6484
2016-02-21T11:43:41.525Z,7324
2016-02-21T11:44:41.511Z,7708
2016-02-21T11:45:41.483Z,7488
2016-02-21T11:46:41.454Z,7640
2016-02-21T11:47:41.441Z,8428
2016-02-21T11:48:41.413Z,9436
2016-02-21T11:49:41.400Z,10468
2016-02-21T11:50:41.371Z,6904
2016-02-21T11:51:41.358Z,6644
2016-02-21T11:52:41.346Z,6196
2016-02-21T11:53:41.316Z,6760
2016-02-21T11:54:41.288Z,5228
2016-02-21T11:55:41.260Z,7644
2016-02-21T11:56:41.246Z,7192
2016-02-21T11:57:41.231Z,7388
2016-02-21T11:58:41.187Z,7012
2016-02-21T11:59:41.145Z,6480
2016-02-21T12:00:41.117Z,8492
2016-02-21T12:01:41.105Z,6804
2016-02-21T12:02:41.048Z,5392
2016-02-21T12:03:41.029Z,6152
2016-02-21T12:04:40.996Z,5996
2016-02-21T12:05:40.962Z,5040
2016-02-21T12:06:40.960Z,4764
2016-02-21T12:07:40.926Z,5092
2016-02-21T12:08:40.895Z,5124
2016-02-21T12:09:40.865Z,6664
2016-02-21T12:10:40.850Z,5972
2016-02-21T12:11:40.819Z,6584
2016-02-21T12:12:40.790Z,6560
2016-02-21T12:13:40.775Z,6396
2016-02-21T12:14:40.762Z,5988
2016-02-21T12:15:40.732Z,5736
2016-02-21T12:16:40.704Z,5732
2016-02-21T12:17:40.689Z,5416
2016-02-21T12:18:40.661Z,5396
2016-02-21T12:19:40.647Z,5468
2016-02-21T12:20:40.619Z,5100
2016-02-21T12:21:40.591Z,5020
2016-02-21T12:22:40.578Z,4468
2016-02-21T12:23:40.550Z,4600
2016-02-21T12:24:40.537Z,5588
2016-02-21T12:25:40.508Z,5512
2016-02-21T12:26:40.496Z,5452
2016-02-21T12:27:40.482Z,7600
2016-02-21T12:28:40.454Z,8704
2016-02-21T12:29:40.425Z,6800
2016-02-21T12:30:40.412Z,6480
2016-02-21T12:31:40.384Z,4720
2016-02-21T12:32:40.371Z,4912
2016-02-21T12:33:40.342Z,5900
2016-02-21T12:34:40.330Z,7052
2016-02-21T12:35:40.301Z,6292
2016-02-21T12:36:40.272Z,7116
2016-02-21T12:37:40.259Z,6920
2016-02-21T12:38:40.231Z,7264
2016-02-21T12:39:40.218Z,7248
2016-02-21T12:40:40.204Z,5688
2016-02-21T12:41:40.176Z,6648
2016-02-21T12:42:40.148Z,6064
2016-02-21T12:43:40.119Z,5476
2016-02-21T12:44:40.106Z,4412
2016-02-21T12:45:40.078Z,4360
2016-02-21T12:46:40.065Z,4180
2016-02-21T12:47:40.036Z,4268
2016-02-21T12:48:40.038Z,4284
2016-02-21T12:49:40.010Z,4324
2016-02-21T12:50:39.982Z,4108
2016-02-21T12:51:39.984Z,4524
2016-02-21T12:52:39.940Z,4284
2016-02-21T12:53:39.928Z,4808
2016-02-21T12:54:39.899Z,3804
2016-02-21T12:55:39.869Z,3824
2016-02-21T12:56:39.858Z,3696
2016-02-21T12:57:39.829Z,3908
2016-02-21T12:58:39.800Z,4356
2016-02-21T12:59:39.788Z,4412
2016-02-21T13:00:39.790Z,5120
2016-02-21T13:01:39.746Z,4284
2016-02-21T13:02:39.717Z,3764
2016-02-21T13:03:39.704Z,3444
2016-02-21T13:04:39.676Z,3264
2016-02-21T13:05:39.647Z,2876
2016-02-21T13:06:39.635Z,2828
2016-02-21T13:07:39.606Z,3052
2016-02-21T13:08:39.593Z,3056
2016-02-21T13:09:39.580Z,2336
2016-02-21T13:10:39.551Z,2792
2016-02-21T13:11:39.523Z,3288
2016-02-21T13:12:39.494Z,3748
2016-02-21T13:13:39.481Z,4384
2016-02-21T13:14:39.453Z,4024
2016-02-21T13:15:39.440Z,3004
2016-02-21T13:16:39.412Z,2296
2016-02-21T13:17:39.398Z,2804
2016-02-21T13:18:39.386Z,3108
2016-02-21T13:19:39.356Z,3160
2016-02-21T13:20:39.328Z,3460
2016-02-21T13:21:39.315Z,3448
2016-02-21T13:22:39.287Z,3808
2016-02-21T13:23:39.258Z,4988
2016-02-21T13:24:39.229Z,5180
2016-02-21T13:25:39.217Z,5360
2016-02-21T13:26:39.188Z,5656
2016-02-21T13:27:39.175Z,5380
2016-02-21T13:28:39.163Z,5000
2016-02-21T13:29:39.134Z,4592
2016-02-21T13:30:39.105Z,5120
2016-02-21T13:31:39.091Z,4976
2016-02-21T13:32:39.063Z,5252
2016-02-21T13:33:39.051Z,5524
2016-02-21T13:34:39.021Z,4620
2016-02-21T13:35:39.040Z,5248
2016-02-21T13:36:38.980Z,4224
2016-02-21T13:37:38.952Z,4048
2016-02-21T13:38:38.939Z,4104
2016-02-21T13:39:38.910Z,4784
2016-02-21T13:40:38.898Z,4024
2016-02-21T13:41:38.869Z,4040
2016-02-21T13:42:38.871Z,4032
2016-02-21T13:43:38.842Z,5000
2016-02-21T13:44:38.815Z,3992
2016-02-21T13:45:38.786Z,3656
2016-02-21T13:46:38.757Z,3672
2016-02-21T13:47:38.728Z,2876
2016-02-21T13:48:38.716Z,2228
2016-02-21T13:49:38.687Z,1880
2016-02-21T13:50:38.706Z,2120
2016-02-21T13:51:38.661Z,2352
2016-02-21T13:52:38.617Z,2580
2016-02-21T13:53:38.604Z,2224
2016-02-21T13:54:38.591Z,2540
2016-02-21T13:55:38.563Z,2656
2016-02-21T13:56:38.550Z,2576
2016-02-21T13:57:38.536Z,2008
2016-02-21T13:58:38.508Z,2064